createdAt,value
2023-04-24T00:01:18.164Z,90.55
2023-04-24T00:03:46.578Z,93.04
2023-04-24T00:06:14.951Z,92.73
2023-04-24T00:08:43.179Z,92.53
2023-04-24T00:11:13.150Z,97.67
2023-04-24T00:13:41.739Z,95.33
2023-04-24T00:16:09.965Z,96.06
2023-04-24T00:18:38.296Z,93.12
2023-04-24T00:21:07.418Z,92.86
2023-04-24T00:23:35.785Z,91.73
2023-04-24T00:26:04.182Z,92.47
2023-04-24T00:28:33.863Z,90.63
2023-04-24T00:31:02.260Z,93.42
2023-04-24T00:33:30.574Z,92.57
2023-04-24T00:35:58.933Z,91.67
2023-04-24T00:38:27.185Z,97.31
2023-04-24T00:40:56.315Z,99.69
2023-04-24T00:43:24.858Z,100.00
2023-04-24T00:45:54.579Z,100.00
2023-04-24T00:48:23.598Z,100.00
2023-04-24T00:50:51.956Z,100.00
2023-04-24T00:53:20.301Z,100.00
2023-04-24T00:55:49.132Z,100.00
2023-04-24T00:58:17.502Z,100.00
2023-04-24T01:00:47.347Z,99.83
2023-04-24T01:03:17.902Z,100.00
2023-04-24T01:05:46.320Z,100.00
2023-04-24T01:08:15.842Z,100.00
2023-04-24T01:10:44.267Z,100.00
2023-04-24T01:13:12.902Z,100.00
2023-04-24T01:15:41.373Z,100.00
2023-04-24T01:18:09.747Z,100.00
2023-04-24T01:20:42.167Z,100.00
2023-04-24T01:23:12.174Z,100.00
2023-04-24T01:25:40.734Z,100.00
2023-04-24T01:28:09.142Z,100.00
2023-04-24T01:30:37.499Z,100.00
2023-04-24T01:33:07.086Z,100.00
2023-04-24T01:35:35.604Z,100.00
2023-04-24T01:38:03.927Z,100.00
2023-04-24T01:40:34.004Z,100.00
2023-04-24T01:43:02.457Z,100.00
2023-04-24T01:45:30.772Z,100.00
2023-04-24T01:47:59.447Z,100.00
2023-04-24T01:50:27.851Z,100.00
2023-04-24T01:52:56.578Z,100.00
2023-04-24T01:55:24.791Z,100.00
2023-04-24T01:57:54.958Z,100.00
2023-04-24T02:00:24.045Z,100.00
2023-04-24T02:02:52.392Z,100.00
2023-04-24T02:05:20.965Z,100.00
2023-04-24T02:07:49.278Z,100.00
2023-04-24T02:10:17.626Z,100.00
2023-04-24T02:12:45.948Z,100.00
2023-04-24T02:15:16.159Z,100.00
2023-04-24T02:17:44.501Z,100.00
2023-04-24T02:20:13.441Z,100.00
2023-04-24T02:22:41.688Z,100.00
2023-04-24T02:25:10.825Z,100.00
2023-04-24T02:27:39.078Z,100.00
2023-04-24T02:30:09.304Z,100.00
2023-04-24T02:32:40.267Z,100.00
2023-04-24T02:35:09.429Z,100.00
2023-04-24T02:37:37.709Z,100.00
2023-04-24T02:40:07.493Z,100.00
2023-04-24T02:42:35.791Z,100.00
2023-04-24T02:45:04.137Z,100.00
2023-04-24T02:47:32.563Z,100.00
2023-04-24T02:50:02.506Z,100.00
2023-04-24T02:52:30.785Z,100.00
2023-04-24T02:54:59.037Z,100.00
2023-04-24T02:57:27.328Z,100.00
2023-04-24T02:59:55.582Z,100.00
2023-04-24T03:02:24.041Z,100.00
2023-04-24T03:04:52.344Z,100.00
2023-04-24T03:07:22.444Z,100.00
2023-04-24T03:09:50.729Z,100.00
2023-04-24T03:12:19.176Z,100.00
2023-04-24T03:14:47.512Z,100.00
2023-04-24T03:17:15.834Z,100.00
2023-04-24T03:19:44.374Z,100.00
2023-04-24T03:22:13.434Z,100.00
2023-04-24T03:24:43.049Z,100.00
2023-04-24T03:27:11.331Z,100.00
2023-04-24T03:29:39.631Z,100.00
2023-04-24T03:32:07.927Z,100.00
2023-04-24T03:34:36.168Z,100.00
2023-04-24T03:37:04.399Z,100.00
2023-04-24T03:39:32.614Z,100.00
2023-04-24T03:42:02.953Z,100.00
2023-04-24T03:44:31.202Z,100.00
2023-04-24T03:47:00.504Z,100.00
2023-04-24T03:49:28.967Z,100.00
2023-04-24T03:51:57.190Z,100.00
2023-04-24T03:54:25.564Z,100.00
2023-04-24T03:56:53.862Z,100.00
2023-04-24T03:59:23.536Z,100.00
2023-04-24T04:01:51.880Z,100.00
2023-04-24T04:04:20.424Z,100.00
2023-04-24T04:06:48.990Z,100.00
2023-04-24T04:09:17.500Z,100.00
2023-04-24T04:11:45.743Z,100.00
2023-04-24T04:14:14.023Z,100.00
2023-04-24T04:16:44.304Z,100.00
2023-04-24T04:19:12.744Z,100.00
2023-04-24T04:21:41.091Z,100.00
2023-04-24T04:24:10.850Z,100.00
2023-04-24T04:26:39.160Z,100.00
2023-04-24T04:29:07.881Z,100.00
2023-04-24T04:31:36.243Z,100.00
2023-04-24T04:34:06.046Z,100.00
2023-04-24T04:36:38.093Z,100.00
2023-04-24T04:39:06.400Z,100.00
2023-04-24T04:41:36.219Z,100.00
2023-04-24T04:44:05.856Z,100.00
2023-04-24T04:46:35.325Z,100.00
2023-04-24T04:49:05.418Z,100.00
2023-04-24T04:51:33.779Z,100.00
2023-04-24T04:54:02.031Z,100.00
2023-04-24T04:56:30.320Z,100.00
2023-04-24T04:58:58.583Z,100.00
2023-04-24T05:01:28.821Z,100.00
2023-04-24T05:03:57.350Z,100.00
2023-04-24T05:06:27.304Z,100.00
2023-04-24T05:08:58.292Z,100.00
2023-04-24T05:11:26.749Z,100.00
2023-04-24T05:13:55.112Z,100.00
2023-04-24T05:16:23.702Z,100.00
2023-04-24T05:18:52.012Z,100.00
2023-04-24T05:21:20.307Z,100.00
2023-04-24T05:23:50.094Z,100.00
2023-04-24T05:26:18.874Z,100.00
2023-04-24T05:28:47.109Z,100.00
2023-04-24T05:31:15.437Z,100.00
2023-04-24T05:33:44.017Z,100.00
2023-04-24T05:36:12.251Z,100.00
2023-04-24T05:38:40.654Z,100.00
2023-04-24T05:41:10.355Z,100.00
2023-04-24T05:43:38.614Z,100.00
2023-04-24T05:46:07.159Z,100.00
2023-04-24T05:48:35.720Z,100.00
2023-04-24T05:51:03.976Z,100.00
2023-04-24T05:53:32.436Z,100.00
2023-04-24T05:56:00.787Z,100.00
2023-04-24T05:58:30.448Z,100.00
2023-04-24T06:00:59.694Z,100.00
2023-04-24T06:03:28.500Z,100.00
2023-04-24T06:05:56.888Z,100.00
2023-04-24T06:08:25.173Z,95.73
2023-04-24T06:10:53.556Z,94.36
2023-04-24T06:13:21.939Z,92.07
2023-04-24T06:15:51.709Z,90.31
2023-04-24T06:18:20.008Z,92.14
2023-04-24T06:20:49.276Z,87.26
2023-04-24T06:23:17.579Z,82.95
2023-04-24T06:25:45.931Z,83.08
2023-04-24T06:28:15.497Z,82.99
2023-04-24T06:30:44.565Z,79.85
2023-04-24T06:35:47.595Z,75.27
2023-04-24T06:38:17.461Z,74.23
2023-04-24T06:40:45.974Z,73.86
2023-04-24T06:43:14.410Z,72.96
2023-04-24T06:45:44.500Z,71.53
2023-04-24T06:48:14.598Z,68.26
2023-04-24T06:50:43.083Z,66.87
2023-04-24T06:53:13.827Z,65.28
2023-04-24T06:55:42.492Z,64.32
2023-04-24T06:58:10.991Z,64.72
2023-04-24T07:00:39.362Z,66.53
2023-04-24T07:03:07.920Z,65.63
2023-04-24T07:05:39.376Z,63.01
2023-04-24T07:08:08.088Z,63.18
2023-04-24T07:10:36.873Z,62.18
2023-04-24T07:13:05.194Z,62.69
2023-04-24T07:15:33.524Z,63.33
2023-04-24T07:18:04.889Z,64.15
2023-04-24T07:20:34.442Z,63.74
2023-04-24T07:23:04.684Z,62.87
2023-04-24T07:25:33.194Z,65.21
2023-04-24T07:28:01.522Z,66.82
2023-04-24T07:30:30.623Z,65.62
2023-04-24T07:32:59.008Z,64.69
2023-04-24T07:35:27.700Z,64.30
2023-04-24T07:37:56.550Z,63.88
2023-04-24T07:40:26.401Z,61.35
2023-04-24T07:42:54.660Z,60.27
2023-04-24T07:45:24.294Z,60.88
2023-04-24T07:47:53.346Z,60.05
2023-04-24T07:50:22.088Z,57.99
2023-04-24T07:52:50.503Z,54.26
2023-04-24T07:55:20.855Z,54.06
2023-04-24T07:57:52.340Z,51.06
2023-04-24T08:00:21.255Z,52.69
2023-04-24T08:02:49.957Z,51.70
2023-04-24T08:05:19.019Z,50.89
2023-04-24T08:07:49.929Z,49.28
2023-04-24T08:10:18.338Z,49.89
2023-04-24T08:12:46.899Z,48.92
2023-04-24T08:15:16.811Z,49.76
2023-04-24T08:17:45.164Z,49.60
2023-04-24T08:20:15.613Z,51.32
2023-04-24T08:22:44.510Z,53.07
2023-04-24T08:25:13.375Z,53.11
2023-04-24T08:27:41.772Z,51.66
2023-04-24T08:30:10.741Z,52.44
2023-04-24T08:32:40.494Z,52.22
2023-04-24T08:35:10.827Z,50.67
2023-04-24T08:37:39.568Z,50.91
2023-04-24T08:40:14.231Z,50.17
2023-04-24T08:42:45.271Z,49.26
2023-04-24T08:45:15.059Z,49.93
2023-04-24T08:47:45.584Z,47.49
2023-04-24T08:50:14.088Z,48.15
2023-04-24T08:52:44.550Z,47.25
2023-04-24T08:55:12.837Z,50.22
2023-04-24T08:57:42.571Z,48.37
2023-04-24T09:00:12.314Z,48.56
2023-04-24T09:02:46.005Z,47.89
2023-04-24T09:05:16.181Z,49.63
2023-04-24T09:07:48.875Z,48.84
2023-04-24T09:10:17.596Z,46.10
2023-04-24T09:12:46.827Z,44.13
2023-04-24T09:15:15.461Z,44.51
2023-04-24T09:17:45.565Z,45.01
2023-04-24T09:20:13.952Z,44.60
2023-04-24T09:22:42.387Z,45.78
2023-04-24T09:25:13.726Z,44.72
2023-04-24T09:27:45.884Z,45.37
2023-04-24T09:30:15.410Z,47.76
2023-04-24T09:32:45.399Z,47.37
2023-04-24T09:35:15.467Z,45.85
2023-04-24T09:37:45.613Z,44.65
2023-04-24T09:40:15.890Z,47.08
2023-04-24T09:42:47.574Z,47.19
2023-04-24T09:45:16.321Z,48.32
2023-04-24T09:47:46.163Z,46.58
2023-04-24T09:50:20.820Z,45.94
2023-04-24T09:52:59.362Z,43.90
2023-04-24T09:55:28.166Z,47.69
2023-04-24T09:57:57.766Z,48.57
2023-04-24T10:00:27.931Z,48.48
2023-04-24T10:03:02.545Z,47.72
2023-04-24T10:05:33.679Z,47.33
2023-04-24T10:08:06.750Z,45.01
2023-04-24T10:10:36.456Z,43.94
2023-04-24T10:13:06.287Z,43.01
2023-04-24T10:15:34.779Z,42.15
2023-04-24T10:18:07.535Z,40.77
2023-04-24T10:20:37.374Z,40.59
2023-04-24T10:23:07.592Z,39.03
2023-04-24T10:25:38.807Z,39.47
2023-04-24T10:28:09.781Z,38.95
2023-04-24T10:30:39.370Z,38.61
2023-04-24T10:33:10.309Z,40.72
2023-04-24T10:35:41.953Z,40.27
2023-04-24T10:38:14.414Z,38.47
2023-04-24T10:40:42.966Z,39.23
2023-04-24T10:43:12.541Z,39.49
2023-04-24T10:45:41.481Z,41.87
2023-04-24T10:48:15.067Z,39.69
2023-04-24T10:50:48.551Z,39.91
2023-04-24T10:53:19.360Z,40.99
2023-04-24T10:55:49.828Z,39.93
2023-04-24T10:58:18.880Z,40.27
2023-04-24T11:00:58.872Z,41.70
2023-04-24T11:03:30.602Z,38.73
2023-04-24T11:06:01.671Z,38.96
2023-04-24T11:08:33.247Z,37.09
2023-04-24T11:11:04.769Z,36.25
2023-04-24T11:14:10.178Z,38.00
2023-04-24T11:16:45.610Z,38.72
2023-04-24T11:19:24.730Z,39.26
2023-04-24T11:22:00.791Z,39.53
2023-04-24T11:24:34.563Z,37.52
2023-04-24T11:27:16.159Z,35.63
2023-04-24T11:29:47.250Z,34.38
2023-04-24T11:32:27.657Z,32.75
2023-04-24T11:34:58.561Z,34.55
2023-04-24T11:37:28.937Z,31.91
2023-04-24T11:40:01.187Z,30.73
2023-04-24T11:42:30.714Z,32.43
2023-04-24T11:44:59.193Z,32.40
2023-04-24T11:47:32.214Z,34.07
2023-04-24T11:50:03.023Z,34.42
2023-04-24T11:52:31.950Z,34.82
2023-04-24T11:55:01.088Z,33.65
2023-04-24T11:57:34.712Z,33.32
2023-04-24T12:00:04.624Z,36.52
2023-04-24T12:02:34.154Z,34.04
2023-04-24T12:05:05.122Z,33.62
2023-04-24T12:07:44.387Z,33.68
2023-04-24T12:10:12.831Z,33.41
2023-04-24T12:12:41.312Z,32.95
2023-04-24T12:15:11.039Z,33.66
2023-04-24T12:17:44.166Z,32.62
2023-04-24T12:20:15.503Z,33.71
2023-04-24T12:22:48.006Z,35.09
2023-04-24T12:25:17.681Z,33.77
2023-04-24T12:27:46.574Z,36.46
2023-04-24T12:30:16.525Z,34.16
2023-04-24T12:32:45.749Z,33.37
2023-04-24T12:35:16.264Z,34.44
2023-04-24T12:37:47.483Z,35.74
2023-04-24T12:40:17.066Z,34.30
2023-04-24T12:42:46.643Z,33.96
2023-04-24T12:45:15.532Z,33.13
2023-04-24T12:47:44.751Z,31.93
2023-04-24T12:50:14.244Z,33.17
2023-04-24T12:52:44.668Z,31.88
2023-04-24T12:55:14.233Z,33.19
2023-04-24T12:57:42.654Z,32.24
2023-04-24T13:00:11.940Z,32.02
2023-04-24T13:02:40.793Z,32.18
2023-04-24T13:05:09.917Z,32.66
2023-04-24T13:07:39.200Z,30.89
2023-04-24T13:10:10.516Z,32.02
2023-04-24T13:12:39.821Z,30.26
2023-04-24T13:15:09.418Z,30.20
2023-04-24T13:17:37.827Z,31.41
2023-04-24T13:20:07.454Z,34.92
2023-04-24T13:22:35.682Z,32.85
2023-04-24T13:25:04.110Z,33.12
2023-04-24T13:27:33.948Z,33.65
2023-04-24T13:30:02.278Z,34.35
2023-04-24T13:32:30.719Z,35.71
2023-04-24T13:34:59.077Z,35.78
2023-04-24T13:37:27.328Z,36.48
2023-04-24T13:39:55.714Z,36.83
2023-04-24T13:42:23.960Z,37.99
2023-04-24T13:44:55.250Z,38.21
2023-04-24T13:47:23.499Z,38.18
2023-04-24T13:49:52.057Z,38.36
2023-04-24T13:52:20.814Z,38.75
2023-04-24T13:55:06.469Z,38.21
2023-04-24T13:57:34.874Z,37.56
2023-04-24T14:00:05.222Z,38.74
2023-04-24T14:02:33.757Z,38.73
2023-04-24T14:05:02.386Z,38.09
2023-04-24T14:07:31.384Z,37.89
2023-04-24T14:09:59.783Z,37.61
2023-04-24T14:12:28.231Z,38.37
2023-04-24T14:14:56.593Z,38.48
2023-04-24T14:17:26.356Z,39.59
2023-04-24T14:19:57.352Z,38.10
2023-04-24T14:22:25.814Z,37.56
2023-04-24T14:24:54.022Z,37.01
2023-04-24T14:27:22.329Z,36.78
2023-04-24T14:29:50.637Z,36.62
2023-04-24T14:32:19.025Z,40.31
2023-04-24T14:34:48.753Z,35.92
2023-04-24T14:37:17.350Z,36.43
2023-04-24T14:39:50.016Z,36.60
2023-04-24T14:42:24.788Z,36.34
2023-04-24T14:44:54.052Z,36.93
2023-04-24T14:47:22.999Z,36.35
2023-04-24T14:49:52.750Z,38.14
2023-04-24T14:52:21.247Z,38.97
2023-04-24T14:54:49.586Z,39.77
2023-04-24T14:57:17.925Z,41.28
2023-04-24T14:59:46.373Z,40.97
2023-04-24T15:02:16.210Z,43.56
2023-04-24T15:04:45.600Z,41.89
2023-04-24T15:07:15.502Z,42.33
2023-04-24T15:09:44.089Z,41.18
2023-04-24T15:12:13.524Z,41.54
2023-04-24T15:14:41.938Z,41.14
2023-04-24T15:17:10.344Z,41.07
2023-04-24T15:19:38.736Z,41.44
2023-04-24T15:22:06.953Z,41.83
2023-04-24T15:24:36.583Z,41.28
2023-04-24T15:27:05.230Z,41.82
2023-04-24T15:29:34.855Z,44.09
2023-04-24T15:32:03.205Z,43.00
2023-04-24T15:34:34.709Z,44.50
2023-04-24T15:37:03.574Z,43.29
2023-04-24T15:39:32.023Z,44.75
2023-04-24T15:42:02.834Z,43.65
2023-04-24T15:44:31.142Z,43.13
2023-04-24T15:47:01.860Z,43.17
2023-04-24T15:49:30.520Z,43.66
2023-04-24T15:51:58.883Z,44.50
2023-04-24T15:54:27.295Z,44.25
2023-04-24T15:56:55.600Z,45.54
2023-04-24T15:59:25.751Z,45.89
2023-04-24T16:01:55.929Z,46.25
2023-04-24T16:04:24.821Z,45.78
2023-04-24T16:06:53.589Z,45.77
2023-04-24T16:09:22.167Z,45.96
2023-04-24T16:11:50.881Z,46.10
2023-04-24T16:14:19.489Z,45.64
2023-04-24T16:16:49.591Z,46.15
2023-04-24T16:19:18.481Z,46.07
2023-04-24T16:21:47.229Z,45.99
2023-04-24T16:24:16.218Z,45.93
2023-04-24T16:26:45.122Z,45.83
2023-04-24T16:29:15.741Z,45.56
2023-04-24T16:31:44.906Z,46.69
2023-04-24T16:34:15.628Z,47.74
2023-04-24T16:36:45.308Z,46.62
2023-04-24T16:39:14.925Z,46.94
2023-04-24T16:41:44.155Z,46.73
2023-04-24T16:44:14.150Z,46.06
2023-04-24T16:46:43.280Z,46.37
2023-04-24T16:49:12.367Z,47.31
2023-04-24T16:51:42.786Z,49.91
2023-04-24T16:54:11.747Z,48.80
2023-04-24T16:56:40.801Z,49.72
2023-04-24T16:59:10.075Z,48.34
2023-04-24T17:01:39.163Z,50.11
2023-04-24T17:04:08.294Z,51.29
2023-04-24T17:06:37.533Z,51.74
2023-04-24T17:09:08.060Z,51.37
2023-04-24T17:11:37.130Z,51.88
2023-04-24T17:14:06.501Z,50.82
2023-04-24T17:16:35.893Z,50.77
2023-04-24T17:19:05.186Z,51.95
2023-04-24T17:21:34.586Z,52.95
2023-04-24T17:24:03.639Z,54.74
2023-04-24T17:26:34.134Z,56.76
2023-04-24T17:29:03.173Z,56.88
2023-04-24T17:31:32.168Z,57.13
2023-04-24T17:34:01.319Z,58.97
2023-04-24T17:36:30.371Z,59.21
2023-04-24T17:38:59.456Z,59.66
2023-04-24T17:41:28.394Z,59.70
2023-04-24T17:43:58.200Z,61.82
2023-04-24T17:46:26.678Z,60.18
2023-04-24T17:48:55.279Z,59.88
2023-04-24T17:51:23.884Z,60.86
2023-04-24T17:53:52.347Z,62.39
2023-04-24T17:56:21.014Z,62.56
2023-04-24T17:58:49.619Z,63.75
2023-04-24T18:01:19.730Z,65.28
2023-04-24T18:03:48.104Z,65.92
2023-04-24T18:06:18.886Z,64.65
2023-04-24T18:08:47.409Z,65.29
2023-04-24T18:11:15.856Z,66.26
2023-04-24T18:13:44.194Z,67.23
2023-04-24T18:16:12.437Z,66.21
2023-04-24T18:18:42.170Z,67.29
2023-04-24T18:21:10.400Z,67.78
2023-04-24T18:23:38.781Z,69.73
2023-04-24T18:26:07.163Z,71.91
2023-04-24T18:28:35.543Z,72.18
2023-04-24T18:31:04.051Z,75.18
2023-04-24T18:33:32.776Z,71.03
2023-04-24T18:36:03.723Z,69.54
2023-04-24T18:38:32.325Z,69.67
2023-04-24T18:41:00.667Z,71.21
2023-04-24T18:43:29.008Z,72.26
2023-04-24T18:45:57.348Z,74.33
2023-04-24T18:48:25.722Z,77.90
2023-04-24T18:50:54.076Z,79.22
2023-04-24T18:53:23.881Z,80.75
2023-04-24T18:55:52.165Z,77.55
2023-04-24T18:58:20.453Z,78.29
2023-04-24T19:00:48.918Z,77.67
2023-04-24T19:03:17.403Z,76.91
2023-04-24T19:05:45.753Z,78.81
2023-04-24T19:08:14.095Z,83.75
2023-04-24T19:10:43.815Z,86.06
2023-04-24T19:13:12.195Z,83.85
2023-04-24T19:15:40.491Z,83.26
2023-04-24T19:18:09.275Z,89.19
2023-04-24T19:20:37.633Z,90.96
2023-04-24T19:23:06.294Z,93.22
2023-04-24T19:25:34.754Z,100.00
2023-04-24T19:28:04.608Z,100.00
2023-04-24T19:30:32.835Z,100.00
2023-04-24T19:33:01.658Z,100.00
2023-04-24T19:35:29.926Z,100.00
2023-04-24T19:37:58.246Z,100.00
2023-04-24T19:40:26.568Z,100.00
2023-04-24T19:42:54.910Z,100.00
2023-04-24T19:45:24.748Z,100.00
2023-04-24T19:47:53.450Z,100.00
2023-04-24T19:50:21.814Z,100.00
2023-04-24T19:52:50.113Z,100.00
2023-04-24T19:55:18.775Z,100.00
2023-04-24T19:57:47.077Z,100.00
2023-04-24T20:00:16.270Z,100.00
2023-04-24T20:02:46.227Z,100.00
2023-04-24T20:05:14.876Z,100.00
2023-04-24T20:07:43.376Z,100.00
2023-04-24T20:10:12.241Z,100.00
2023-04-24T20:12:41.226Z,100.00
2023-04-24T20:15:10.774Z,100.00
2023-04-24T20:17:39.172Z,100.00
2023-04-24T20:20:10.320Z,100.00
2023-04-24T20:22:39.892Z,100.00
2023-04-24T20:25:09.492Z,100.00
2023-04-24T20:27:37.810Z,100.00
2023-04-24T20:30:10.649Z,100.00
2023-04-24T20:32:39.090Z,100.00
2023-04-24T20:35:09.611Z,100.00
2023-04-24T20:37:37.960Z,100.00
2023-04-24T20:40:07.300Z,100.00
2023-04-24T20:42:36.897Z,100.00
2023-04-24T20:45:05.917Z,100.00
2023-04-24T20:47:34.236Z,100.00
2023-04-24T20:50:04.295Z,100.00
2023-04-24T20:52:34.157Z,100.00
2023-04-24T20:55:03.480Z,100.00
2023-04-24T20:57:32.522Z,100.00
2023-04-24T21:00:00.912Z,100.00
2023-04-24T21:02:29.325Z,100.00
2023-04-24T21:04:57.690Z,100.00
2023-04-24T21:07:26.028Z,100.00
2023-04-24T21:09:55.782Z,100.00
2023-04-24T21:12:24.065Z,100.00
2023-04-24T21:14:52.370Z,100.00
2023-04-24T21:17:20.732Z,100.00
2023-04-24T21:19:49.446Z,100.00
2023-04-24T21:22:17.653Z,100.00
2023-04-24T21:24:45.883Z,100.00
2023-04-24T21:27:15.669Z,100.00
2023-04-24T21:29:44.202Z,100.00
2023-04-24T21:32:12.683Z,100.00
2023-04-24T21:34:41.130Z,100.00
2023-04-24T21:37:27.482Z,100.00
2023-04-24T21:39:56.259Z,100.00
2023-04-24T21:42:27.680Z,100.00
2023-04-24T21:44:55.898Z,100.00
2023-04-24T21:47:24.249Z,100.00
2023-04-24T21:49:52.454Z,100.00
2023-04-24T21:52:20.775Z,100.00
2023-04-24T21:54:49.046Z,100.00
2023-04-24T21:57:17.461Z,100.00
2023-04-24T21:59:47.636Z,100.00
2023-04-24T22:02:16.067Z,100.00
2023-04-24T22:04:44.912Z,100.00
2023-04-24T22:07:13.337Z,100.00
2023-04-24T22:09:41.565Z,100.00
2023-04-24T22:12:09.875Z,100.00
2023-04-24T22:14:38.352Z,100.00
2023-04-24T22:17:09.727Z,100.00
2023-04-24T22:19:37.960Z,100.00
2023-04-24T22:22:06.229Z,100.00
2023-04-24T22:24:34.498Z,100.00
2023-04-24T22:27:03.139Z,100.00
2023-04-24T22:29:32.175Z,100.00
2023-04-24T22:32:01.144Z,100.00
2023-04-24T22:34:31.000Z,100.00
2023-04-24T22:36:59.221Z,100.00
2023-04-24T22:39:27.368Z,100.00
2023-04-24T22:41:55.724Z,100.00
2023-04-24T22:44:23.989Z,100.00
2023-04-24T22:46:52.353Z,100.00
2023-04-24T22:49:21.665Z,100.00
2023-04-24T22:51:51.965Z,100.00
2023-04-24T22:54:20.179Z,100.00
2023-04-24T22:56:48.445Z,100.00
2023-04-24T22:59:16.778Z,100.00
2023-04-24T23:01:45.006Z,100.00
2023-04-24T23:04:13.480Z,100.00
2023-04-24T23:06:41.828Z,100.00
2023-04-24T23:09:11.788Z,100.00
2023-04-24T23:11:40.126Z,100.00
2023-04-24T23:14:08.667Z,100.00
2023-04-24T23:16:38.995Z,100.00
2023-04-24T23:19:07.367Z,100.00
2023-04-24T23:21:35.727Z,100.00
2023-04-24T23:24:04.089Z,100.00
2023-04-24T23:26:33.803Z,100.00
2023-04-24T23:29:02.072Z,100.00
2023-04-24T23:31:30.430Z,100.00
2023-04-24T23:34:00.325Z,100.00
2023-04-24T23:36:28.565Z,100.00
2023-04-24T23:38:56.908Z,100.00
2023-04-24T23:41:25.246Z,100.00
2023-04-24T23:43:54.942Z,100.00
2023-04-24T23:46:23.232Z,100.00
2023-04-24T23:48:51.505Z,100.00
2023-04-24T23:51:20.110Z,100.00
2023-04-24T23:53:48.685Z,100.00
2023-04-24T23:56:17.118Z,100.00
2023-04-24T23:58:46.765Z,100.00
